Rolling Prairie, Indiana
Current Conditions -  °F | °C
As of 6:15 PM on Monday 24 Nov 2014 (Local Time) from KPPO Reporting Station
Overcast Overcast  
Wind Chill: 19°   Ceiling: 1600
Heat Index: 32°   Visibility: 10mi
Dew Point: 27°   Wind: 22mph
Humidity: 83%   Direction: 240°WSW
Pressure: 29.67"   Gusts: 33mph
Location:  41.67°N, 86.62°W
Report Text: KPPO 250015Z AUTO 24019G29KT 10SM OVC016 00/M03 A2967 RMK AO2 T00001026
Loading
Personal Weather Stations






























Interactive Weather Map New forecast layout! Learn more

10-Day Weather Forecast

Advertisements
Track Severe Weather on mobile